Hovedside
METAR-TAF:

METAR-TAF

Lufthavner :

Christchurch internasjonale lufthavn

Christchurch, New Zealand

breddegrad: 43-29S, lengdegrad: 172-33E, høyde over havet: 38 m

Gjeldene værobservasjon

Denne rapporten ble laget for 36 minutter siden, klokken 03:00 UTC
Vind 3 kt fra Nord
Temperatur 17°C
Luftfuktighet 42%
Trykk 1006 hPa
Sikt 10 km eller mer

METAR: NZCH 170300Z AUTO 35003KT 9999 NCD 17/04 Q1006 NOSIG

Tid: 15:36 (03:36 UTC)

Varsel

Denne rapporten ble laget for 4 timer og 35 minutter siden, klokken 23:01 UTC
Varsel gyldig fra 17. klokken 00 UTC til 18. klokken 00 UTC
Vind 5 kt fra Vest
Sikt 10 km eller mer
ingen skyer under 1500 m og ingen bygeskyer
Sannsynlighet 30%
fra 17. klokken 14 UTC til 17. klokken 19 UTC
Sikt: 0500 m
tåke

TAF: NZCH 162301Z 1700/1800 26005KT CAVOK PROB30 1714/1719 0500 FG

Værobservasjoner og værvarsel for over 4000 flyplasser (METAR- og TAF-rapporter).

Tilgjengelige stasjoner er representert av de røde og gule prikkene på kartet.

Hold musepekeren over prikken for å se navnet på stasjonen.

Klikk så for å se værobservasjoner og -varsler.

For å forandre kartet kan du klikke på den grønne knappen med svart kryss for å zoome inn, på den grønne knappen med strek for å zoome ut, eller på de grønne pilene for å se tilstøtende kart.


METAR-TAF: